Time;durP1;ratioP1;P1;durP2;ratioP2;P2;SDS_P1;SDS_P2;PMS_P1;PMS_P2;Temp;Humidity;BMP_temperature;BMP_pressure;BME280_temperature;BME280_humidity;BME280_pressure;Samples;Min_cycle;Max_cycle;Signal;HPM_P1;HPM_P2
2022/06/17 00:00:51;;;;;;;9.25;4.32;;;;;;;32.87;39.59;99633.13;5096773;28;20035;-84
2022/06/17 00:03:18;;;;;;;10.00;4.20;;;;;;;32.85;39.50;99632.47;5097222;28;20176;-85
2022/06/17 00:05:44;;;;;;;10.05;4.85;;;;;;;32.85;39.61;99631.63;5097079;28;20027;-82
2022/06/17 00:08:20;;;;;;;9.00;4.25;;;;;;;32.83;39.73;99639.91;5097259;28;20020;-85
2022/06/17 00:10:47;;;;;;;8.23;4.40;;;;;;;32.83;39.54;99636.34;5097545;28;20042;-84
2022/06/17 00:13:17;;;;;;;9.63;4.85;;;;;;;32.81;39.68;99631.97;5115242;28;20364;-85
2022/06/17 00:15:45;;;;;;;7.25;4.45;;;;;;;32.79;39.86;99625.88;5115456;28;20031;-85
2022/06/17 00:18:15;;;;;;;8.48;4.70;;;;;;;32.78;39.94;99628.75;5114452;28;20043;-83
2022/06/17 00:20:43;;;;;;;9.02;4.63;;;;;;;32.76;39.73;99622.66;5114924;28;20104;-85
2022/06/17 00:23:12;;;;;;;9.45;4.95;;;;;;;32.75;39.96;99623.69;5097046;28;20472;-84
2022/06/17 00:25:40;;;;;;;8.82;4.90;;;;;;;32.73;39.89;99617.59;5114973;28;20027;-86
2022/06/17 00:28:18;;;;;;;10.50;4.63;;;;;;;32.72;39.86;99621.31;5097009;28;20066;-85
2022/06/17 00:30:46;;;;;;;8.38;4.40;;;;;;;32.70;39.96;99628.72;5115101;28;20364;-84
2022/06/17 00:33:13;;;;;;;8.93;4.72;;;;;;;32.68;40.10;99626.22;5097019;28;20039;-85
2022/06/17 00:35:42;;;;;;;10.32;5.00;;;;;;;32.66;39.94;99623.69;5115019;28;20035;-84
2022/06/17 00:38:19;;;;;;;8.05;4.68;;;;;;;32.64;39.99;99625.69;5115269;28;20453;-84
2022/06/17 00:40:45;;;;;;;9.13;4.63;;;;;;;32.64;40.43;99631.09;5097504;28;20448;-84
2022/06/17 00:43:30;;;;;;;11.18;5.00;;;;;;;32.63;40.15;99631.28;5116858;28;20061;-86
2022/06/17 00:46:33;;;;;;;10.97;4.57;;;;;;;32.62;40.35;99632.25;5099544;28;20027;-85
2022/06/17 00:49:10;;;;;;;9.52;4.82;;;;;;;32.59;40.43;99630.78;5118595;28;20253;-85
2022/06/17 00:51:44;;;;;;;10.57;4.72;;;;;;;32.58;40.35;99620.94;5098784;28;20426;-85
2022/06/17 00:54:15;;;;;;;9.75;4.40;;;;;;;32.57;40.52;99624.66;5097763;28;20123;-84
2022/06/17 00:56:40;;;;;;;9.93;5.15;;;;;;;32.57;40.69;99624.66;5100121;28;20035;-86
2022/06/17 00:59:10;;;;;;;9.57;5.00;;;;;;;32.56;40.53;99623.00;5100470;28;20024;-84
2022/06/17 01:01:53;;;;;;;9.55;4.88;;;;;;;32.55;40.55;99624.84;5118840;28;20051;-85
2022/06/17 01:04:41;;;;;;;8.05;4.90;;;;;;;32.55;40.84;99626.72;5103970;28;20034;-84
2022/06/17 01:07:22;;;;;;;8.05;4.18;;;;;;;32.53;41.08;99628.72;5108761;28;20027;-85
2022/06/17 01:09:58;;;;;;;11.38;4.63;;;;;;;32.52;41.14;99637.81;5112808;28;20445;-83
2022/06/17 01:12:33;;;;;;;9.02;4.93;;;;;;;32.49;40.70;99647.09;5100160;28;20046;-84
2022/06/17 01:15:00;;;;;;;9.33;4.80;;;;;;;32.48;40.75;99641.88;5118203;28;20034;-84
2022/06/17 01:17:26;;;;;;;10.63;4.97;;;;;;;32.48;40.80;99644.59;5096248;28;20085;-83
2022/06/17 01:19:55;;;;;;;8.70;4.72;;;;;;;32.46;40.87;99636.66;5096398;28;20047;-84
2022/06/17 01:22:26;;;;;;;9.15;4.50;;;;;;;32.45;40.94;99642.22;5098078;28;20102;-83
2022/06/17 01:25:08;;;;;;;12.18;5.07;;;;;;;32.44;40.74;99641.34;5096589;28;20028;-84
2022/06/17 01:27:39;;;;;;;9.40;4.70;;;;;;;32.43;40.84;99636.13;5097514;28;20020;-84
2022/06/17 01:30:07;;;;;;;9.15;4.10;;;;;;;32.39;40.86;99639.13;5097398;28;20023;-83
2022/06/17 01:32:51;;;;;;;10.48;4.95;;;;;;;32.38;41.12;99634.72;5096450;28;20038;-83
2022/06/17 01:35:19;;;;;;;11.70;4.90;;;;;;;32.37;41.04;99640.28;5098466;28;20442;-84
2022/06/17 01:37:45;;;;;;;10.43;5.15;;;;;;;32.33;41.05;99631.69;5098358;28;20095;-84
2022/06/17 01:40:12;;;;;;;9.85;4.97;;;;;;;32.32;40.99;99627.28;5098920;28;20066;-84
2022/06/17 01:42:39;;;;;;;10.18;5.07;;;;;;;32.32;41.16;99632.69;5099423;28;20031;-84
2022/06/17 01:45:07;;;;;;;10.77;4.95;;;;;;;32.29;41.00;99627.63;5098138;28;20484;-84
2022/06/17 01:47:34;;;;;;;11.48;4.68;;;;;;;32.26;41.16;99628.78;5095993;28;20024;-84
2022/06/17 01:50:05;;;;;;;9.95;4.70;;;;;;;32.23;41.12;99623.72;5095918;28;20457;-83
2022/06/17 01:52:44;;;;;;;11.48;5.07;;;;;;;32.23;40.96;99636.38;5095582;28;20019;-85
2022/06/17 01:55:18;;;;;;;8.73;5.20;;;;;;;32.21;40.98;99641.09;5095601;28;20111;-82
2022/06/17 01:58:08;;;;;;;10.30;5.35;;;;;;;32.19;41.28;99633.16;5097110;28;20036;-85
2022/06/17 02:00:35;;;;;;;11.93;5.18;;;;;;;32.16;41.18;99638.91;5096825;28;20036;-84
2022/06/17 02:03:16;;;;;;;13.10;5.15;;;;;;;32.15;41.13;99643.44;5095668;28;20089;-84
2022/06/17 02:05:48;;;;;;;13.27;5.35;;;;;;;32.12;41.47;99643.78;5096043;28;20453;-83
2022/06/17 02:08:14;;;;;;;11.30;5.07;;;;;;;32.10;41.29;99639.56;5095212;28;20020;-83
2022/06/17 02:10:46;;;;;;;14.45;5.55;;;;;;;32.07;41.48;99635.31;5096630;28;20480;-83
2022/06/17 02:13:13;;;;;;;13.63;5.05;;;;;;;32.05;41.43;99637.31;5095227;28;20028;-83
2022/06/17 02:15:40;;;;;;;10.80;5.65;;;;;;;32.05;41.52;99652.69;5096355;28;20476;-84
2022/06/17 02:18:10;;;;;;;10.35;5.70;;;;;;;32.00;41.41;99645.91;5094833;28;20044;-84
2022/06/17 02:20:38;;;;;;;13.00;6.10;;;;;;;31.97;41.76;99646.25;5095601;28;20030;-84
2022/06/17 02:23:06;;;;;;;10.32;5.55;;;;;;;31.95;41.57;99640.16;5096167;28;20052;-85
2022/06/17 02:25:37;;;;;;;15.00;5.78;;;;;;;31.94;41.80;99648.41;5096185;28;20043;-84
2022/06/17 02:28:05;;;;;;;12.68;5.10;;;;;;;31.91;41.94;99651.44;5094919;28;20020;-85
2022/06/17 02:30:31;;;;;;;13.23;6.05;;;;;;;31.88;42.16;99648.06;5095648;28;20028;-83
2022/06/17 02:33:02;;;;;;;12.63;5.35;;;;;;;31.87;42.30;99657.16;5097265;28;20059;-84
2022/06/17 02:35:58;;;;;;;10.35;5.45;;;;;;;31.86;42.44;99658.16;5097192;28;20127;-84
2022/06/17 02:38:27;;;;;;;12.63;5.70;;;;;;;31.83;42.71;99663.88;5098230;28;20456;-84
2022/06/17 02:41:05;;;;;;;13.48;6.07;;;;;;;31.82;42.79;99664.88;5094926;28;20118;-85
2022/06/17 02:43:42;;;;;;;12.88;6.43;;;;;;;31.79;42.96;99656.22;5094534;28;20114;-83
2022/06/17 02:46:32;;;;;;;11.98;5.55;;;;;;;31.74;43.15;99652.19;5094622;28;20419;-84
2022/06/17 02:49:00;;;;;;;10.85;5.93;;;;;;;31.74;43.43;99659.41;5094694;28;20024;-84
2022/06/17 02:51:36;;;;;;;15.73;5.57;;;;;;;31.71;43.76;99668.69;5095807;28;20081;-82
2022/06/17 02:54:04;;;;;;;12.57;6.15;;;;;;;31.71;43.49;99667.84;5096043;28;20028;-84
2022/06/17 02:56:32;;;;;;;12.27;5.97;;;;;;;31.69;43.71;99670.69;5094668;28;20373;-84
2022/06/17 02:59:19;;;;;;;11.52;4.93;;;;;;;31.68;43.82;99673.53;5095520;28;20024;-84
2022/06/17 03:01:46;;;;;;;10.95;5.07;;;;;;;31.65;44.05;99673.88;5095853;28;20361;-85
2022/06/17 03:04:19;;;;;;;15.35;5.55;;;;;;;31.65;44.16;99684.66;5095504;28;20032;-85
2022/06/17 03:06:47;;;;;;;14.05;5.45;;;;;;;31.61;44.14;99679.56;5096187;28;20129;-85
2022/06/17 03:09:23;;;;;;;10.70;5.28;;;;;;;31.60;44.08;99680.59;5095565;28;20366;-84
2022/06/17 03:11:58;;;;;;;14.10;5.40;;;;;;;31.61;44.25;99681.41;5094431;28;20030;-85
2022/06/17 03:14:28;;;;;;;11.38;4.95;;;;;;;31.59;44.44;99686.13;5094701;28;20027;-85
2022/06/17 03:16:57;;;;;;;12.88;5.93;;;;;;;31.60;44.34;99687.81;5094615;28;20051;-86
2022/06/17 03:19:25;;;;;;;9.98;5.28;;;;;;;31.59;44.38;99689.69;5094656;28;20036;-85
2022/06/17 03:21:51;;;;;;;11.90;5.28;;;;;;;31.59;44.50;99689.69;5095833;28;20043;-85
2022/06/17 03:24:24;;;;;;;13.60;5.65;;;;;;;31.59;44.37;99689.69;5095789;28;20028;-85
2022/06/17 03:27:01;;;;;;;12.30;5.57;;;;;;;31.59;44.37;99687.00;5097344;28;20035;-84
2022/06/17 03:29:31;;;;;;;11.07;5.65;;;;;;;31.59;44.22;99697.78;5097093;28;20024;-85
2022/06/17 03:32:02;;;;;;;12.02;5.68;;;;;;;31.62;44.44;99702.00;5097761;28;20047;-85
2022/06/17 03:34:34;;;;;;;13.23;6.10;;;;;;;31.63;44.56;99700.16;5095341;28;20069;-84
2022/06/17 03:37:03;;;;;;;11.75;5.30;;;;;;;31.61;44.35;99703.84;5093663;28;20043;-84
2022/06/17 03:39:32;;;;;;;12.40;5.18;;;;;;;31.63;44.44;99710.94;5094107;28;20107;-85
2022/06/17 03:42:20;;;;;;;12.02;4.93;;;;;;;31.63;44.51;99719.03;5094149;28;20034;-84
2022/06/17 03:45:00;;;;;;;10.23;5.20;;;;;;;31.63;44.53;99719.03;5095384;28;20024;-84
2022/06/17 03:47:53;;;;;;;10.13;4.60;;;;;;;31.63;44.32;99724.41;5093689;28;20031;-84
2022/06/17 03:50:26;;;;;;;16.52;6.05;;;;;;;31.61;44.02;99728.13;5095290;28;20515;-83
2022/06/17 03:52:56;;;;;;;12.02;5.03;;;;;;;31.63;44.29;99725.28;5095092;28;20020;-82
2022/06/17 03:55:22;;;;;;;11.18;4.88;;;;;;;31.63;44.32;99721.72;5095162;28;20034;-84
2022/06/17 03:57:52;;;;;;;10.65;5.40;;;;;;;31.63;44.13;99719.03;5093770;28;20020;-84
2022/06/17 04:00:39;;;;;;;11.30;5.07;;;;;;;31.60;44.38;99721.03;5093828;28;20035;-82
2022/06/17 04:03:10;;;;;;;10.13;4.88;;;;;;;31.59;44.20;99718.50;5093601;28;20036;-83
2022/06/17 04:05:38;;;;;;;12.25;5.18;;;;;;;31.59;43.97;99723.91;5093650;28;20043;-83
2022/06/17 04:08:04;;;;;;;10.00;4.75;;;;;;;31.57;44.10;99718.66;5093636;28;20085;-83
2022/06/17 04:10:30;;;;;;;12.88;4.97;;;;;;;31.57;44.06;99720.53;5094709;28;20028;-84
2022/06/17 04:12:56;;;;;;;13.60;5.40;;;;;;;31.53;44.14;99722.69;5094627;28;20358;-84
2022/06/17 04:15:34;;;;;;;10.52;5.10;;;;;;;31.50;43.98;99714.91;5093775;28;20024;-83
2022/06/17 04:17:59;;;;;;;13.60;5.68;;;;;;;31.48;44.36;99716.91;5093342;28;20055;-83
2022/06/17 04:20:57;;;;;;;11.55;5.53;;;;;;;31.46;44.39;99721.59;5095247;28;20076;-85
2022/06/17 04:23:31;;;;;;;13.60;5.45;;;;;;;31.47;44.40;99723.31;5061513;28;20036;-84
2022/06/17 04:26:32;;;;;;;13.15;5.07;;;;;;;31.47;44.27;99720.63;5097220;28;20031;-84
2022/06/17 04:29:01;;;;;;;11.98;5.05;;;;;;;31.46;44.21;99725.16;5096498;28;20028;-85
2022/06/17 04:31:29;;;;;;;10.88;4.97;;;;;;;31.46;44.40;99718.91;5098469;28;20072;-84
2022/06/17 04:33:57;;;;;;;12.77;5.07;;;;;;;31.46;44.14;99721.59;5097417;28;20118;-83
2022/06/17 04:36:40;;;;;;;8.90;4.78;;;;;;;31.45;44.32;99726.16;5098334;28;20088;-84
2022/06/17 04:39:33;;;;;;;8.27;4.72;;;;;;;31.46;44.44;99721.59;5098498;28;20416;-85
2022/06/17 04:42:06;;;;;;;13.00;5.30;;;;;;;31.44;44.05;99726.31;5096939;28;20036;-84
2022/06/17 04:44:32;;;;;;;10.82;5.18;;;;;;;31.44;44.03;99720.91;5098171;28;20016;-85
2022/06/17 04:47:07;;;;;;;10.48;4.82;;;;;;;31.43;44.10;99730.03;5097283;28;20059;-84
2022/06/17 04:49:36;;;;;;;9.90;4.32;;;;;;;31.41;44.04;99727.47;5097229;28;20120;-85
2022/06/17 04:52:15;;;;;;;9.00;5.05;;;;;;;31.40;44.31;99724.91;5097441;28;20342;-84
2022/06/17 04:54:40;;;;;;;9.93;5.00;;;;;;;31.39;44.33;99728.63;5096879;28;20124;-85
2022/06/17 04:57:06;;;;;;;9.40;4.78;;;;;;;31.40;44.12;99730.31;5097902;28;20074;-84
2022/06/17 04:59:34;;;;;;;12.43;4.70;;;;;;;31.39;44.23;99734.00;5096923;28;20024;-82
2022/06/17 05:02:02;;;;;;;9.02;5.50;;;;;;;31.37;44.42;99727.94;5096864;28;20020;-83
2022/06/17 05:04:28;;;;;;;8.80;4.25;;;;;;;31.37;44.19;99725.25;5096885;28;20084;-82
2022/06/17 05:06:54;;;;;;;10.90;5.00;;;;;;;31.34;44.49;99719.16;5096807;28;20024;-83
2022/06/17 05:09:34;;;;;;;9.60;4.72;;;;;;;31.32;44.47;99723.88;5097841;28;20020;-83
2022/06/17 05:12:45;;;;;;;45.30;7.18;;;;;;;31.29;44.52;99728.72;5101093;28;20023;-91
2022/06/17 05:15:21;;;;;;;14.13;5.63;;;;;;;31.23;44.63;99735.53;5063091;28;20097;-93
2022/06/17 05:17:50;;;;;;;12.23;4.32;;;;;;;31.19;44.51;99729.59;5063662;28;20037;-94
2022/06/17 05:53:53;;;;;;;8.80;5.13;;;;;;;31.13;44.76;99715.94;5514276;22;20064;-92
2022/06/17 05:56:21;;;;;;;12.10;5.00;;;;;;;31.12;44.57;99716.94;5037168;28;20053;-92
2022/06/17 05:58:49;;;;;;;10.13;4.95;;;;;;;31.12;44.72;99722.31;5047022;28;20017;-92
2022/06/17 06:01:15;;;;;;;11.35;4.72;;;;;;;31.12;44.47;99728.53;5063701;28;20063;-91
2022/06/17 06:03:41;;;;;;;10.15;4.45;;;;;;;31.13;44.95;99718.63;5054218;28;20032;-93
2022/06/17 06:06:08;;;;;;;9.27;5.03;;;;;;;31.13;44.56;99713.22;5055149;28;20037;-92
2022/06/17 06:08:34;;;;;;;10.68;5.13;;;;;;;31.12;44.72;99706.16;5057376;28;20086;-93
2022/06/17 06:11:04;;;;;;;11.98;5.10;;;;;;;31.12;44.39;99706.16;5053501;28;20106;-92
2022/06/17 06:13:30;;;;;;;9.18;4.38;;;;;;;31.13;44.67;99707.84;5037060;28;20013;-92
2022/06/17 06:15:58;;;;;;;8.65;4.60;;;;;;;31.12;44.64;99712.38;5052862;28;20025;-93
2022/06/17 06:18:37;;;;;;;9.10;4.80;;;;;;;31.11;44.54;99720.59;5072462;28;20009;-93
2022/06/17 06:21:04;;;;;;;10.02;5.43;;;;;;;31.11;44.34;99713.38;5058329;28;20032;-87
2022/06/17 06:23:44;;;;;;;10.00;5.00;;;;;;;31.11;44.33;99716.06;5043095;28;20050;-91
2022/06/17 06:26:16;;;;;;;9.10;4.75;;;;;;;31.11;44.63;99726.00;5055126;28;20111;-90
2022/06/17 06:28:43;;;;;;;14.52;5.03;;;;;;;31.11;44.55;99737.63;5051892;28;20074;-90
2022/06/17 06:31:34;;;;;;;9.80;5.03;;;;;;;31.10;44.91;99741.34;5042861;28;20033;-89
2022/06/17 06:34:00;;;;;;;11.98;5.22;;;;;;;31.10;44.88;99746.72;5042362;28;20461;-88
2022/06/17 06:36:26;;;;;;;11.60;5.40;;;;;;;31.11;44.89;99731.38;5040386;28;20082;-88
2022/06/17 06:38:52;;;;;;;8.60;4.75;;;;;;;31.10;45.15;99729.69;5040472;28;20033;-88
2022/06/17 06:41:20;;;;;;;9.13;4.90;;;;;;;31.11;45.14;99742.16;5041202;28;20029;-90
2022/06/17 06:43:47;;;;;;;12.85;5.03;;;;;;;31.12;44.92;99746.56;5041918;28;20112;-89
2022/06/17 06:46:15;;;;;;;9.13;5.07;;;;;;;31.12;44.92;99749.28;5040895;28;20067;-90
2022/06/17 06:48:42;;;;;;;11.35;5.05;;;;;;;31.12;44.78;99743.88;5041457;28;20021;-90
2022/06/17 06:51:08;;;;;;;11.55;5.40;;;;;;;31.11;44.86;99743.03;5042772;28;20035;-90
2022/06/17 06:53:47;;;;;;;10.65;5.40;;;;;;;31.10;45.10;99741.34;5040658;28;20060;-89
2022/06/17 06:56:13;;;;;;;11.25;5.38;;;;;;;31.11;45.18;99742.16;5039906;28;20025;-89
2022/06/17 06:58:39;;;;;;;11.63;5.68;;;;;;;31.12;45.21;99733.09;5041400;28;20124;-89
2022/06/17 07:01:04;;;;;;;9.10;4.70;;;;;;;31.13;45.47;99724.00;5040040;28;20502;-90
2022/06/17 07:03:30;;;;;;;10.15;5.13;;;;;;;31.13;45.48;99734.78;5040735;28;20124;-88
2022/06/17 07:06:00;;;;;;;12.13;5.85;;;;;;;31.14;45.26;99741.88;5057537;28;20052;-87
2022/06/17 07:08:29;;;;;;;13.40;6.20;;;;;;;31.15;45.31;99719.28;5040036;28;20021;-87
2022/06/17 07:10:59;;;;;;;9.57;5.00;;;;;;;31.15;45.23;99717.47;5039288;28;20021;-88
2022/06/17 07:13:30;;;;;;;13.68;5.35;;;;;;;31.16;45.02;99727.25;5042387;28;20021;-89
2022/06/17 07:15:56;;;;;;;9.65;4.88;;;;;;;31.16;44.90;99724.53;5040669;28;20025;-89
2022/06/17 07:18:35;;;;;;;10.38;5.15;;;;;;;31.18;45.20;99719.00;5039831;28;20093;-89
2022/06/17 07:21:04;;;;;;;8.65;4.90;;;;;;;31.19;45.09;99726.91;5040446;28;20025;-89
2022/06/17 07:23:36;;;;;;;10.63;4.90;;;;;;;31.20;44.97;99725.06;5040817;28;20039;-88
2022/06/17 07:26:06;;;;;;;11.55;4.60;;;;;;;31.21;45.19;99721.38;5039069;28;20537;-88
2022/06/17 07:28:33;;;;;;;10.52;4.80;;;;;;;31.22;44.85;99728.44;5056983;28;20109;-88
2022/06/17 07:30:59;;;;;;;9.60;4.90;;;;;;;31.22;45.02;99728.44;5038971;28;20420;-89
2022/06/17 07:33:28;;;;;;;8.90;4.85;;;;;;;31.25;44.88;99727.28;5039473;28;20036;-90
2022/06/17 07:35:57;;;;;;;9.32;4.38;;;;;;;31.26;44.87;99723.59;5039601;28;20469;-89
2022/06/17 07:41:13;;;;;;;10.10;5.40;;;;;;;31.28;44.78;99727.84;5057640;28;20028;-90
2022/06/17 07:43:41;;;;;;;9.98;4.80;;;;;;;31.29;44.69;99726.88;5057310;28;20025;-89
2022/06/17 07:46:07;;;;;;;10.85;4.82;;;;;;;31.30;44.77;99728.56;5041772;28;20020;-89
2022/06/17 07:48:35;;;;;;;8.52;4.57;;;;;;;31.31;44.87;99732.97;5043200;28;20036;-90
2022/06/17 07:51:01;;;;;;;8.43;4.80;;;;;;;31.33;44.75;99730.09;5043654;28;20032;-90
2022/06/17 07:53:29;;;;;;;8.70;4.65;;;;;;;31.34;44.51;99729.94;5039983;28;20115;-88
2022/06/17 07:55:58;;;;;;;9.55;4.82;;;;;;;31.36;44.49;99728.97;5038421;28;20202;-89
2022/06/17 07:58:24;;;;;;;10.43;4.82;;;;;;;31.36;44.59;99723.56;5038866;28;20533;-88
2022/06/17 08:00:49;;;;;;;12.13;5.47;;;;;;;31.38;44.46;99726.94;5038703;28;20056;-88
2022/06/17 08:03:19;;;;;;;8.80;4.78;;;;;;;31.38;44.35;99732.34;5055883;28;20090;-88
2022/06/17 08:05:48;;;;;;;10.02;4.45;;;;;;;31.40;44.30;99735.72;5042047;28;20463;-88
2022/06/17 08:08:22;;;;;;;10.63;4.60;;;;;;;31.41;44.11;99735.56;5044186;28;20106;-89
2022/06/17 08:10:57;;;;;;;12.18;4.60;;;;;;;31.42;44.41;99733.72;5042303;28;20378;-89
2022/06/17 08:13:24;;;;;;;9.27;5.45;;;;;;;31.45;44.50;99723.47;5060254;28;20025;-88
2022/06/17 08:15:52;;;;;;;9.77;5.25;;;;;;;31.46;44.32;99729.69;5042197;28;20033;-90
2022/06/17 08:18:18;;;;;;;8.70;4.68;;;;;;;31.49;44.53;99724.00;5042477;28;20036;-89
2022/06/17 08:20:44;;;;;;;11.02;4.97;;;;;;;31.50;44.23;99722.13;5042306;28;20418;-89
2022/06/17 08:23:10;;;;;;;9.10;5.22;;;;;;;31.52;44.12;99729.06;5042558;28;20102;-88
2022/06/17 08:25:44;;;;;;;8.88;5.15;;;;;;;31.52;44.07;99723.66;5041340;28;20040;-89
2022/06/17 08:28:11;;;;;;;9.90;4.68;;;;;;;31.54;44.12;99715.44;5040898;28;20070;-89
2022/06/17 08:30:41;;;;;;;9.68;4.88;;;;;;;31.55;44.21;99723.38;5041090;28;20021;-89
2022/06/17 08:33:08;;;;;;;10.07;5.15;;;;;;;31.57;44.30;99726.75;5058494;28;20021;-89
2022/06/17 08:35:36;;;;;;;8.93;4.90;;;;;;;31.59;44.01;99724.75;5058671;28;20025;-88
2022/06/17 08:38:30;;;;;;;7.28;4.60;;;;;;;31.61;44.13;99720.03;5040794;28;20111;-88
2022/06/17 08:41:26;;;;;;;8.85;4.82;;;;;;;31.63;44.12;99713.63;5034605;28;20044;-90
2022/06/17 08:44:21;;;;;;;6.53;4.55;;;;;;;31.66;44.18;99718.72;5058836;28;20052;-89
2022/06/17 08:47:05;;;;;;;8.27;5.07;;;;;;;31.69;43.98;99729.19;5041110;28;20025;-90
2022/06/17 08:49:43;;;;;;;8.95;4.95;;;;;;;31.70;43.85;99715.53;5058903;28;20029;-89
2022/06/17 08:52:29;;;;;;;9.52;5.07;;;;;;;31.73;43.95;99719.78;5041182;28;20047;-90
2022/06/17 08:55:32;;;;;;;8.55;5.03;;;;;;;31.74;43.83;99721.47;5034787;28;20069;-89
2022/06/17 08:58:39;;;;;;;11.40;5.25;;;;;;;31.78;43.73;99720.16;5036851;28;20447;-88
2022/06/17 09:01:23;;;;;;;7.75;4.70;;;;;;;31.80;43.65;99710.03;5021336;28;20041;-89
2022/06/17 09:04:20;;;;;;;7.15;4.43;;;;;;;31.82;43.63;99709.88;5038269;28;20051;-89
2022/06/17 09:07:04;;;;;;;8.35;4.22;;;;;;;31.84;43.49;99710.56;5020280;28;20034;-89
2022/06/17 09:09:58;;;;;;;9.40;4.75;;;;;;;31.86;43.62;99725.63;5020254;28;20033;-89
2022/06/17 09:12:48;;;;;;;8.23;4.53;;;;;;;31.88;43.86;99718.22;5037161;28;20029;-89
2022/06/17 09:15:35;;;;;;;8.25;4.60;;;;;;;31.91;43.65;99717.06;5019689;28;20455;-88
2022/06/17 09:18:29;;;;;;;7.28;3.78;;;;;;;31.94;43.56;99716.72;5036555;28;20044;-90
2022/06/17 09:21:08;;;;;;;8.90;4.50;;;;;;;31.96;43.45;99713.88;5019954;28;20114;-90
2022/06/17 09:23:38;;;;;;;7.43;4.10;;;;;;;31.96;43.67;99712.00;5021673;28;20052;-90
2022/06/17 09:26:10;;;;;;;6.75;4.43;;;;;;;31.99;43.67;99708.13;5021067;28;20186;-88
2022/06/17 09:28:41;;;;;;;8.95;4.70;;;;;;;31.99;43.54;99709.00;5020890;28;20040;-89
2022/06/17 09:31:23;;;;;;;7.40;3.92;;;;;;;32.03;43.52;99709.53;5020731;28;20029;-89
2022/06/17 09:33:55;;;;;;;7.50;4.18;;;;;;;32.06;43.49;99705.66;5020325;28;20047;-88
2022/06/17 09:36:39;;;;;;;8.05;4.50;;;;;;;32.09;43.35;99699.91;5035995;28;20021;-89
2022/06/17 09:39:17;;;;;;;9.60;4.97;;;;;;;32.11;43.42;99706.03;5019896;28;20037;-89
2022/06/17 09:41:52;;;;;;;7.90;4.10;;;;;;;32.14;43.05;99711.06;5035804;28;20040;-88
2022/06/17 09:44:43;;;;;;;9.77;4.25;;;;;;;32.19;43.48;99716.00;5037516;28;20032;-89
2022/06/17 09:47:21;;;;;;;6.32;3.90;;;;;;;32.23;43.21;99714.66;5019397;28;20075;-90
2022/06/17 09:50:07;;;;;;;8.63;4.47;;;;;;;32.26;43.16;99708.94;5019321;28;20033;-90
2022/06/17 09:52:55;;;;;;;8.63;4.68;;;;;;;32.27;42.98;99716.03;5038071;28;20036;-89
2022/06/17 09:55:28;;;;;;;9.00;4.80;;;;;;;32.29;42.92;99703.22;5040841;28;20056;-91
2022/06/17 09:58:08;;;;;;;7.88;4.10;;;;;;;32.35;43.12;99701.72;5026803;28;20029;-88
2022/06/17 10:00:48;;;;;;;8.25;4.40;;;;;;;32.36;43.00;99704.28;5025521;28;20179;-90
2022/06/17 10:03:25;;;;;;;8.98;4.97;;;;;;;32.41;42.92;99706.50;5029291;28;20458;-89
2022/06/17 10:05:58;;;;;;;7.60;4.60;;;;;;;32.45;42.95;99701.63;5021691;28;20033;-90
2022/06/17 10:08:56;;;;;;;10.52;4.30;;;;;;;32.48;42.87;99707.53;5035058;28;20021;-90
2022/06/17 10:11:32;;;;;;;6.70;4.13;;;;;;;32.52;42.85;99702.66;5035431;28;20039;-89
2022/06/17 10:14:07;;;;;;;10.75;4.80;;;;;;;32.57;42.71;99700.28;5018761;28;20080;-88
2022/06/17 10:19:44;;;;;;;8.13;4.30;;;;;;;32.61;42.84;99701.66;5036301;28;20099;-90
2022/06/17 10:22:37;;;;;;;8.13;4.65;;;;;;;32.66;42.37;99704.72;5035766;28;20044;-89
2022/06/17 10:25:19;;;;;;;8.60;4.53;;;;;;;32.69;42.63;99703.53;5037400;28;20112;-90
2022/06/17 10:28:13;;;;;;;9.52;4.80;;;;;;;32.73;42.66;99698.66;5034534;28;20025;-91
2022/06/17 10:30:42;;;;;;;10.43;4.45;;;;;;;32.78;42.35;99696.31;5035107;28;20486;-90
2022/06/17 10:33:15;;;;;;;6.90;3.78;;;;;;;32.82;42.34;99703.03;5035149;28;20036;-91
2022/06/17 10:35:45;;;;;;;7.88;3.88;;;;;;;32.86;42.29;99693.59;5019121;28;20039;-90
2022/06/17 10:38:18;;;;;;;8.95;4.80;;;;;;;32.90;42.21;99692.25;5019840;28;20034;-89
2022/06/17 10:40:44;;;;;;;5.82;3.78;;;;;;;32.93;42.21;99700.03;5018568;28;20348;-89
2022/06/17 10:43:15;;;;;;;9.43;3.75;;;;;;;32.95;42.17;99698.00;5034776;28;20041;-88
2022/06/17 10:45:41;;;;;;;9.65;4.25;;;;;;;32.99;42.32;99695.00;5018441;28;20033;-88
2022/06/17 10:48:57;;;;;;;8.30;4.03;;;;;;;33.03;41.92;99704.47;5035787;28;20025;-90
2022/06/17 10:51:24;;;;;;;7.80;4.00;;;;;;;33.06;41.87;99699.56;4978844;28;20034;-89
2022/06/17 10:53:55;;;;;;;7.88;3.90;;;;;;;33.07;42.00;99690.44;5012436;28;20053;-89
2022/06/17 10:56:36;;;;;;;7.13;4.25;;;;;;;33.10;42.08;99694.66;5035533;28;20044;-90
2022/06/17 10:59:10;;;;;;;9.98;4.00;;;;;;;33.12;41.98;99692.63;5037458;28;20044;-90
2022/06/17 11:01:47;;;;;;;7.32;3.95;;;;;;;33.13;42.03;99694.34;5036004;28;20455;-90
2022/06/17 11:08:23;;;;;;;8.30;4.32;;;;;;;33.19;41.87;99699.06;4974627;28;20345;-90
2022/06/17 11:10:55;;;;;;;6.22;3.97;;;;;;;33.21;41.87;99697.03;5026186;28;20099;-87
2022/06/17 11:13:21;;;;;;;7.30;3.60;;;;;;;33.26;41.64;99695.69;5017959;28;20455;-90
2022/06/17 11:15:52;;;;;;;7.53;3.80;;;;;;;33.27;41.79;99690.13;5017917;28;20573;-88
2022/06/17 11:18:25;;;;;;;7.70;4.55;;;;;;;33.30;41.55;99683.50;5017430;28;20045;-90
2022/06/17 11:20:59;;;;;;;8.05;4.05;;;;;;;33.35;41.51;99691.94;5017800;28;20399;-88
2022/06/17 11:23:49;;;;;;;8.57;4.13;;;;;;;33.38;41.45;99697.03;5018529;28;20037;-89
2022/06/17 11:26:19;;;;;;;5.53;3.60;;;;;;;33.40;41.60;99689.56;5018824;28;20108;-89
2022/06/17 11:28:48;;;;;;;6.68;3.38;;;;;;;33.41;41.33;99677.75;5017658;28;20040;-89
2022/06/17 11:31:20;;;;;;;7.15;3.83;;;;;;;33.43;41.55;99678.44;5019305;28;20033;-89
2022/06/17 11:33:52;;;;;;;7.88;3.53;;;;;;;33.45;41.43;99676.38;5034075;28;20064;-89
2022/06/17 11:36:20;;;;;;;7.20;3.47;;;;;;;33.47;41.59;99666.22;5034446;28;20352;-90
2022/06/17 11:38:47;;;;;;;8.02;4.20;;;;;;;33.51;41.29;99668.63;5033838;28;20026;-90
2022/06/17 11:41:25;;;;;;;7.97;3.92;;;;;;;33.54;41.29;99663.72;5018413;28;20537;-89
2022/06/17 11:43:54;;;;;;;7.03;3.55;;;;;;;33.57;41.39;99667.94;5035139;28;20029;-89
2022/06/17 11:46:22;;;;;;;7.38;3.80;;;;;;;33.61;41.12;99664.72;5034944;28;20029;-89
2022/06/17 11:49:02;;;;;;;6.38;3.60;;;;;;;33.65;41.33;99662.50;5017596;28;20033;-90
2022/06/17 11:51:32;;;;;;;8.32;4.00;;;;;;;33.69;40.98;99661.16;5017386;28;20025;-89
2022/06/17 11:54:05;;;;;;;9.32;3.70;;;;;;;33.72;41.12;99658.09;5035137;28;20073;-91
2022/06/17 11:56:43;;;;;;;7.57;3.80;;;;;;;33.75;41.07;99655.03;5017912;28;20067;-89
2022/06/17 11:59:12;;;;;;;8.68;4.00;;;;;;;33.80;40.66;99659.09;5033484;28;20022;-89
2022/06/17 12:01:40;;;;;;;7.35;3.53;;;;;;;33.82;40.53;99659.75;5034210;28;20029;-88
2022/06/17 12:04:26;;;;;;;6.93;3.80;;;;;;;33.83;40.81;99650.63;5039428;28;20033;-89
2022/06/17 12:06:55;;;;;;;7.18;3.30;;;;;;;33.86;40.72;99650.28;5019769;28;20029;-90
2022/06/17 12:09:41;;;;;;;6.60;3.75;;;;;;;33.86;40.45;99651.13;5021190;28;20028;-87
2022/06/17 12:12:15;;;;;;;6.68;3.47;;;;;;;33.88;40.88;99645.53;5022041;28;20040;-86
2022/06/17 12:14:59;;;;;;;5.68;3.25;;;;;;;33.89;40.58;99633.69;5022275;28;20037;-88
2022/06/17 12:17:25;;;;;;;6.85;3.45;;;;;;;33.93;40.72;99645.03;5017128;28;20378;-89
2022/06/17 12:19:51;;;;;;;6.60;3.03;;;;;;;33.94;40.69;99634.00;5017081;28;20025;-91
2022/06/17 12:22:27;;;;;;;7.47;3.63;;;;;;;33.96;40.52;99629.28;5033217;28;20091;-89
2022/06/17 12:24:57;;;;;;;8.77;3.65;;;;;;;34.00;40.59;99624.34;5020753;28;20033;-91
2022/06/17 12:27:24;;;;;;;7.28;3.60;;;;;;;34.01;40.40;99621.47;5034458;28;20021;-89
2022/06/17 12:29:53;;;;;;;8.55;3.47;;;;;;;34.05;40.43;99619.28;5033468;28;20581;-91
2022/06/17 12:32:25;;;;;;;5.72;3.30;;;;;;;34.06;40.48;99611.97;5033506;28;20048;-91
2022/06/17 12:35:13;;;;;;;10.82;4.13;;;;;;;34.09;40.38;99614.34;5017071;28;20044;-89
2022/06/17 12:37:55;;;;;;;8.93;3.85;;;;;;;34.10;40.35;99607.91;5033717;28;20176;-90
2022/06/17 12:40:50;;;;;;;7.70;3.47;;;;;;;34.14;40.29;99606.53;5017057;28;20057;-89
2022/06/17 12:43:31;;;;;;;8.48;3.40;;;;;;;34.16;40.09;99607.19;5015893;28;20038;-89